createdAt,value
2022-07-29T00:02:00.940Z,100450.88
2022-07-29T00:04:30.494Z,100442.97
2022-07-29T00:07:00.414Z,100444.97
2022-07-29T00:09:29.243Z,100446.09
2022-07-29T00:12:01.142Z,100446.31
2022-07-29T00:14:29.864Z,100440.53
2022-07-29T00:16:58.646Z,100434.41
2022-07-29T00:19:27.336Z,100443.69
2022-07-29T00:21:55.948Z,100445.50
2022-07-29T00:24:26.240Z,100441.47
2022-07-29T00:26:55.885Z,100439.03
2022-07-29T00:29:34.086Z,100449.06
2022-07-29T00:32:04.433Z,100452.75
2022-07-29T00:34:51.211Z,100448.38
2022-07-29T00:37:20.625Z,100451.88
2022-07-29T00:39:50.674Z,100451.81
2022-07-29T00:42:19.209Z,100445.63
2022-07-29T00:44:47.783Z,100454.84
2022-07-29T00:47:16.427Z,100455.50
2022-07-29T00:49:45.021Z,100443.41
2022-07-29T00:52:16.969Z,100446.09
2022-07-29T00:54:46.280Z,100445.44
2022-07-29T00:57:16.918Z,100444.13
2022-07-29T00:59:45.571Z,100439.38
2022-07-29T01:02:14.306Z,100447.53
2022-07-29T01:04:44.450Z,100440.41
2022-07-29T01:07:14.391Z,100442.94
2022-07-29T01:09:46.598Z,100435.66
2022-07-29T01:12:20.594Z,100442.06
2022-07-29T01:14:51.195Z,100438.50
2022-07-29T01:17:26.365Z,100441.03
2022-07-29T01:20:00.505Z,100438.41
2022-07-29T01:22:58.870Z,100432.47
2022-07-29T01:25:53.241Z,100428.47
2022-07-29T01:28:51.749Z,100439.22
2022-07-29T01:31:27.299Z,100438.50
2022-07-29T01:34:03.849Z,100445.59
2022-07-29T01:36:37.250Z,100439.38
2022-07-29T01:39:11.271Z,100444.63
2022-07-29T01:41:46.565Z,100440.09
2022-07-29T01:44:21.301Z,100447.91
2022-07-29T01:46:58.683Z,100445.00
2022-07-29T01:49:32.073Z,100440.69
2022-07-29T01:52:04.713Z,100444.25
2022-07-29T01:54:38.011Z,100442.72
2022-07-29T01:57:09.731Z,100447.53
2022-07-29T01:59:40.885Z,100442.69
2022-07-29T02:02:12.849Z,100441.25
2022-07-29T02:04:43.571Z,100446.63
2022-07-29T02:07:15.661Z,100448.59
2022-07-29T02:09:45.983Z,100450.44
2022-07-29T02:12:15.662Z,100449.88
2022-07-29T02:14:49.322Z,100452.06
2022-07-29T02:17:24.652Z,100456.81
2022-07-29T02:19:56.906Z,100455.00
2022-07-29T02:22:27.719Z,100442.34
2022-07-29T02:24:58.027Z,100449.13
2022-07-29T02:27:29.515Z,100461.53
2022-07-29T02:30:03.022Z,100463.53
2022-07-29T02:32:32.769Z,100458.28
2022-07-29T02:35:04.026Z,100471.47
2022-07-29T02:37:34.533Z,100470.06
2022-07-29T02:40:04.043Z,100486.63
2022-07-29T02:42:34.878Z,100469.97
2022-07-29T02:45:05.647Z,100474.03
2022-07-29T02:47:44.247Z,100467.66
2022-07-29T02:50:18.039Z,100462.66
2022-07-29T02:52:56.113Z,100466.56
2022-07-29T02:55:32.112Z,100459.97
2022-07-29T02:58:04.885Z,100460.13
2022-07-29T03:00:39.099Z,100465.56
2022-07-29T03:03:13.370Z,100471.81
2022-07-29T03:05:42.788Z,100465.84
2022-07-29T03:08:14.281Z,100469.19
2022-07-29T03:10:46.960Z,100469.72
2022-07-29T03:13:16.786Z,100468.63
2022-07-29T03:15:48.095Z,100466.47
2022-07-29T03:18:17.721Z,100469.63
2022-07-29T03:20:47.449Z,100464.25
2022-07-29T03:23:22.073Z,100467.66
2022-07-29T03:25:51.032Z,100461.69
2022-07-29T03:28:19.993Z,100466.25
2022-07-29T03:30:53.510Z,100459.38
2022-07-29T03:33:24.361Z,100459.22
2022-07-29T03:35:53.245Z,100457.41
2022-07-29T03:38:26.065Z,100465.28
2022-07-29T03:40:58.949Z,100462.56
2022-07-29T03:43:32.544Z,100468.38
2022-07-29T03:46:06.747Z,100470.84
2022-07-29T03:48:39.468Z,100457.78
2022-07-29T03:51:09.008Z,100474.16
2022-07-29T03:53:38.600Z,100470.63
2022-07-29T03:56:09.922Z,100473.25
2022-07-29T03:58:39.956Z,100468.00
2022-07-29T04:01:11.853Z,100466.16
2022-07-29T04:03:41.495Z,100477.34
2022-07-29T04:06:10.462Z,100479.97
2022-07-29T04:08:39.004Z,100472.81
2022-07-29T04:11:08.357Z,100478.69
2022-07-29T04:13:37.990Z,100480.25
2022-07-29T04:16:10.736Z,100474.91
2022-07-29T04:18:39.447Z,100479.91
2022-07-29T04:21:08.226Z,100478.84
2022-07-29T04:23:47.926Z,100483.19
2022-07-29T04:26:22.375Z,100473.28
2022-07-29T04:28:51.368Z,100477.31
2022-07-29T04:31:25.760Z,100485.72
2022-07-29T04:33:56.037Z,100473.25
2022-07-29T04:36:28.618Z,100469.47
2022-07-29T04:38:59.365Z,100476.16
2022-07-29T04:41:32.710Z,100473.13
2022-07-29T04:44:07.228Z,100472.94
2022-07-29T04:46:37.904Z,100482.19
2022-07-29T04:49:07.096Z,100478.28
2022-07-29T04:51:36.000Z,100484.72
2022-07-29T04:54:04.497Z,100490.38
2022-07-29T04:56:33.307Z,100481.91
2022-07-29T04:59:03.133Z,100483.22
2022-07-29T05:01:32.471Z,100489.78
2022-07-29T05:04:03.123Z,100494.47
2022-07-29T05:06:32.337Z,100493.91
2022-07-29T05:09:01.100Z,100490.69
2022-07-29T05:11:30.580Z,100490.91
2022-07-29T05:14:00.296Z,100489.38
2022-07-29T05:16:29.047Z,100497.28
2022-07-29T05:18:58.457Z,100479.88
2022-07-29T05:21:28.805Z,100484.22
2022-07-29T05:23:57.525Z,100478.09
2022-07-29T05:26:26.340Z,100481.47
2022-07-29T05:28:56.118Z,100486.56
2022-07-29T05:31:26.601Z,100482.75
2022-07-29T05:33:55.415Z,100487.72
2022-07-29T05:36:24.168Z,100490.97
2022-07-29T05:38:54.441Z,100483.72
2022-07-29T05:41:23.421Z,100481.16
2022-07-29T05:43:51.916Z,100482.06
2022-07-29T05:46:21.451Z,100475.91
2022-07-29T05:48:50.093Z,100470.59
2022-07-29T05:51:18.742Z,100463.44
2022-07-29T05:53:49.146Z,100465.94
2022-07-29T05:56:19.024Z,100459.44
2022-07-29T05:58:48.214Z,100461.63
2022-07-29T06:01:17.406Z,100463.53
2022-07-29T06:03:46.471Z,100466.53
2022-07-29T06:06:15.681Z,100464.31
2022-07-29T06:08:44.445Z,100467.03
2022-07-29T06:11:13.137Z,100470.28
2022-07-29T06:13:43.379Z,100462.28
2022-07-29T06:16:12.088Z,100466.25
2022-07-29T06:18:45.056Z,100475.50
2022-07-29T06:21:14.533Z,100468.94
2022-07-29T06:23:44.372Z,100470.50
2022-07-29T06:26:12.875Z,100464.81
2022-07-29T06:28:42.992Z,100468.16
2022-07-29T06:31:11.978Z,100463.34
2022-07-29T06:33:41.077Z,100467.34
2022-07-29T06:36:10.407Z,100472.59
2022-07-29T06:38:44.842Z,100474.13
2022-07-29T06:41:19.247Z,100482.47
2022-07-29T06:43:51.959Z,100473.47
2022-07-29T06:46:24.489Z,100474.84
2022-07-29T06:48:54.563Z,100479.59
2022-07-29T06:51:24.235Z,100480.13
2022-07-29T06:53:59.466Z,100474.50
2022-07-29T06:56:38.108Z,100476.72
2022-07-29T06:59:12.673Z,100471.63
2022-07-29T07:01:43.635Z,100474.03
2022-07-29T07:04:14.789Z,100476.16
2022-07-29T07:06:43.766Z,100474.22
2022-07-29T07:09:13.066Z,100473.84
2022-07-29T07:11:41.826Z,100478.75
2022-07-29T07:14:11.965Z,100479.91
2022-07-29T07:16:40.599Z,100476.94
2022-07-29T07:19:09.641Z,100480.63
2022-07-29T07:21:38.991Z,100495.31
2022-07-29T07:24:08.509Z,100487.28
2022-07-29T07:26:37.250Z,100484.53
2022-07-29T07:29:06.104Z,100483.50
2022-07-29T07:31:36.074Z,100484.53
2022-07-29T07:34:06.012Z,100481.63
2022-07-29T07:36:34.798Z,100483.81
2022-07-29T07:39:04.623Z,100485.59
2022-07-29T07:41:33.241Z,100481.81
2022-07-29T07:44:02.459Z,100482.88
2022-07-29T07:46:31.451Z,100485.44
2022-07-29T07:49:01.740Z,100483.06
2022-07-29T07:51:30.498Z,100485.22
2022-07-29T07:54:00.737Z,100490.47
2022-07-29T07:56:35.340Z,100493.59
2022-07-29T07:59:04.237Z,100488.81
2022-07-29T08:01:55.764Z,100497.25
2022-07-29T08:04:27.726Z,100492.44
2022-07-29T08:06:58.050Z,100496.69
2022-07-29T08:09:30.090Z,100497.25
2022-07-29T08:12:00.237Z,100487.34
2022-07-29T08:14:28.852Z,100484.75
2022-07-29T08:16:57.849Z,100485.44
2022-07-29T08:19:27.881Z,100481.56
2022-07-29T08:21:57.191Z,100482.38
2022-07-29T08:24:43.578Z,100489.53
2022-07-29T08:27:40.747Z,100483.75
2022-07-29T08:30:02.525Z,100477.56
2022-07-29T08:32:52.693Z,100480.03
2022-07-29T08:35:23.322Z,100480.59
2022-07-29T08:37:52.402Z,100471.09
2022-07-29T08:40:32.109Z,100479.06
2022-07-29T08:43:06.522Z,100464.66
2022-07-29T08:45:47.267Z,100468.09
2022-07-29T08:48:17.410Z,100467.31
2022-07-29T08:50:48.963Z,100463.78
2022-07-29T08:53:18.888Z,100471.88
2022-07-29T08:55:49.497Z,100458.75
2022-07-29T08:58:20.419Z,100468.19
2022-07-29T09:00:55.917Z,100460.56
2022-07-29T09:03:26.104Z,100459.63
2022-07-29T09:05:56.504Z,100451.88
2022-07-29T09:08:25.608Z,100453.22
2022-07-29T09:10:54.602Z,100455.63
2022-07-29T09:13:23.680Z,100452.59
2022-07-29T09:15:52.285Z,100450.44
2022-07-29T09:18:36.137Z,100446.44
2022-07-29T09:21:27.355Z,100453.38
2022-07-29T09:24:08.082Z,100445.69
2022-07-29T09:26:41.510Z,100435.59
2022-07-29T09:29:12.440Z,100432.56
2022-07-29T09:31:43.152Z,100433.91
2022-07-29T09:34:13.113Z,100436.44
2022-07-29T09:36:45.430Z,100441.00
2022-07-29T09:39:15.592Z,100438.31
2022-07-29T09:41:48.547Z,100440.66
2022-07-29T09:44:18.491Z,100440.25
2022-07-29T09:46:59.483Z,100435.47
2022-07-29T09:49:28.661Z,100431.75
2022-07-29T09:52:10.104Z,100432.25
2022-07-29T09:54:39.701Z,100429.59
2022-07-29T09:57:10.980Z,100416.22
2022-07-29T09:59:50.186Z,100422.78
2022-07-29T10:02:23.725Z,100423.56
2022-07-29T10:04:53.592Z,100418.81
2022-07-29T10:07:23.915Z,100416.72
2022-07-29T10:09:56.895Z,100411.22
2022-07-29T10:12:26.976Z,100397.03
2022-07-29T10:14:56.045Z,100403.75
2022-07-29T10:17:26.150Z,100405.88
2022-07-29T10:19:55.048Z,100406.63
2022-07-29T10:22:50.735Z,100403.06
2022-07-29T10:25:14.354Z,100406.19
2022-07-29T10:27:43.661Z,100407.34
2022-07-29T10:30:18.195Z,100406.44
2022-07-29T10:33:03.604Z,100403.91
2022-07-29T10:35:47.442Z,100403.59
2022-07-29T10:38:32.916Z,100408.81
2022-07-29T10:41:31.869Z,100406.84
2022-07-29T10:44:04.551Z,100408.00
2022-07-29T10:46:39.038Z,100399.63
2022-07-29T10:49:15.852Z,100395.91
2022-07-29T10:51:57.828Z,100396.59
2022-07-29T10:54:44.156Z,100396.72
2022-07-29T10:57:21.621Z,100403.56
2022-07-29T11:00:29.588Z,100394.88
2022-07-29T11:02:59.513Z,100388.63
2022-07-29T11:05:39.858Z,100386.56
2022-07-29T11:08:28.072Z,100384.69
2022-07-29T11:11:43.966Z,100363.53
2022-07-29T11:15:03.723Z,100379.22
2022-07-29T11:17:53.210Z,100368.00
2022-07-29T11:20:45.957Z,100375.59
2022-07-29T11:23:33.456Z,100386.13
2022-07-29T11:26:23.431Z,100377.38
2022-07-29T11:29:05.571Z,100388.41
2022-07-29T11:31:42.650Z,100383.41
2022-07-29T11:34:23.381Z,100381.50
2022-07-29T11:37:28.074Z,100382.72
2022-07-29T11:40:16.454Z,100368.22
2022-07-29T11:42:52.195Z,100381.00
2022-07-29T11:45:49.795Z,100374.13
2022-07-29T11:48:29.608Z,100367.88
2022-07-29T11:51:01.636Z,100358.91
2022-07-29T11:53:33.434Z,100356.75
2022-07-29T11:56:03.878Z,100359.63
2022-07-29T11:58:34.118Z,100354.75
2022-07-29T12:01:04.740Z,100360.19
2022-07-29T12:03:36.883Z,100364.56
2022-07-29T12:06:14.985Z,100347.41
2022-07-29T12:08:45.326Z,100348.66
2022-07-29T12:11:22.978Z,100340.72
2022-07-29T12:13:53.465Z,100344.78
2022-07-29T12:16:27.955Z,100329.13
2022-07-29T12:19:02.911Z,100337.75
2022-07-29T12:21:32.336Z,100335.56
2022-07-29T12:24:08.802Z,100330.53
2022-07-29T12:26:51.060Z,100335.66
2022-07-29T12:29:35.059Z,100331.59
2022-07-29T12:32:14.658Z,100327.91
2022-07-29T12:34:45.416Z,100323.31
2022-07-29T12:37:14.550Z,100319.88
2022-07-29T12:39:43.687Z,100311.31
2022-07-29T12:42:18.270Z,100303.31
2022-07-29T12:44:49.495Z,100306.53
2022-07-29T12:47:20.370Z,100301.72
2022-07-29T12:49:52.503Z,100298.06
2022-07-29T12:52:29.374Z,100300.56
2022-07-29T12:54:58.265Z,100302.47
2022-07-29T12:57:27.819Z,100308.91
2022-07-29T13:00:06.608Z,100306.03
2022-07-29T13:02:37.545Z,100300.66
2022-07-29T13:05:10.623Z,100310.22
2022-07-29T13:07:55.483Z,100310.09
2022-07-29T13:10:27.131Z,100320.69
2022-07-29T13:13:07.553Z,100313.59
2022-07-29T13:15:36.889Z,100316.44
2022-07-29T13:18:07.577Z,100307.69
2022-07-29T13:20:38.265Z,100301.47
2022-07-29T13:23:06.962Z,100300.47
2022-07-29T13:25:41.992Z,100297.78
2022-07-29T13:28:12.526Z,100290.72
2022-07-29T13:30:44.570Z,100297.78
2022-07-29T13:33:13.944Z,100283.81
2022-07-29T13:35:44.559Z,100287.31
2022-07-29T13:38:13.365Z,100288.00
2022-07-29T13:40:43.387Z,100294.41
2022-07-29T13:43:12.272Z,100288.63
2022-07-29T13:45:42.398Z,100291.66
2022-07-29T13:48:12.334Z,100286.44
2022-07-29T13:50:41.255Z,100288.63
2022-07-29T13:53:11.552Z,100285.97
2022-07-29T13:55:46.897Z,100282.78
2022-07-29T13:58:17.044Z,100288.03
2022-07-29T14:00:46.147Z,100281.78
2022-07-29T14:03:15.057Z,100278.16
2022-07-29T14:05:43.836Z,100267.81
2022-07-29T14:08:14.397Z,100271.00
2022-07-29T14:10:43.315Z,100264.19
2022-07-29T14:13:24.969Z,100259.78
2022-07-29T14:15:55.243Z,100256.38
2022-07-29T14:18:24.249Z,100260.16
2022-07-29T14:20:53.698Z,100250.97
2022-07-29T14:23:24.466Z,100248.34
2022-07-29T14:25:55.281Z,100260.31
2022-07-29T14:28:24.015Z,100251.56
2022-07-29T14:30:53.178Z,100252.34
2022-07-29T14:33:21.976Z,100255.25
2022-07-29T14:35:50.645Z,100256.88
2022-07-29T14:38:19.736Z,100237.34
2022-07-29T14:40:50.857Z,100240.72
2022-07-29T14:43:21.780Z,100236.53
2022-07-29T14:45:51.129Z,100231.00
2022-07-29T14:48:20.168Z,100231.22
2022-07-29T14:50:49.317Z,100235.63
2022-07-29T14:53:20.228Z,100226.56
2022-07-29T14:55:51.400Z,100229.28
2022-07-29T14:58:22.263Z,100219.56
2022-07-29T15:00:51.110Z,100213.53
2022-07-29T15:03:23.922Z,100208.31
2022-07-29T15:05:53.482Z,100205.13
2022-07-29T15:08:22.786Z,100209.56
2022-07-29T15:10:52.739Z,100209.88
2022-07-29T15:13:21.253Z,100203.16
2022-07-29T15:15:51.007Z,100200.47
2022-07-29T15:18:25.419Z,100195.25
2022-07-29T15:20:54.640Z,100193.38
2022-07-29T15:23:23.863Z,100200.81
2022-07-29T15:25:53.863Z,100204.19
2022-07-29T15:28:22.649Z,100204.03
2022-07-29T15:30:51.338Z,100201.16
2022-07-29T15:33:20.295Z,100197.28
2022-07-29T15:35:48.979Z,100190.41
2022-07-29T15:38:18.415Z,100189.72
2022-07-29T15:40:47.702Z,100188.50
2022-07-29T15:43:17.910Z,100193.72
2022-07-29T15:46:07.589Z,100187.84
2022-07-29T15:48:40.846Z,100191.03
2022-07-29T15:51:09.457Z,100172.34
2022-07-29T15:53:38.425Z,100173.19
2022-07-29T15:56:07.991Z,100166.63
2022-07-29T15:58:38.102Z,100156.03
2022-07-29T16:01:07.561Z,100146.25
2022-07-29T16:03:36.782Z,100154.81
2022-07-29T16:06:06.132Z,100160.50
2022-07-29T16:08:36.460Z,100160.31
2022-07-29T16:11:05.749Z,100153.56
2022-07-29T16:13:35.102Z,100155.91
2022-07-29T16:16:05.946Z,100157.41
2022-07-29T16:18:34.896Z,100160.59
2022-07-29T16:21:03.846Z,100167.97
2022-07-29T16:23:32.844Z,100165.97
2022-07-29T16:26:01.739Z,100176.34
2022-07-29T16:28:31.034Z,100182.72
2022-07-29T16:31:00.243Z,100194.78
2022-07-29T16:33:55.660Z,100191.09
2022-07-29T16:36:20.322Z,100188.88
2022-07-29T16:38:51.223Z,100189.22
2022-07-29T16:41:20.269Z,100181.31
2022-07-29T16:43:49.080Z,100184.63
2022-07-29T16:46:18.823Z,100187.91
2022-07-29T16:48:49.746Z,100181.50
2022-07-29T16:51:20.449Z,100184.44
2022-07-29T16:53:49.754Z,100192.78
2022-07-29T16:56:19.678Z,100193.41
2022-07-29T16:58:48.667Z,100187.97
2022-07-29T17:01:18.267Z,100184.56
2022-07-29T17:04:04.349Z,100187.16
2022-07-29T17:06:35.257Z,100180.88
2022-07-29T17:09:05.290Z,100181.63
2022-07-29T17:11:53.686Z,100185.63
2022-07-29T17:14:25.738Z,100182.88
2022-07-29T17:17:01.054Z,100189.84
2022-07-29T17:19:35.455Z,100191.13
2022-07-29T17:22:15.494Z,100193.44
2022-07-29T17:24:48.051Z,100194.06
2022-07-29T17:27:17.873Z,100197.72
2022-07-29T17:29:47.567Z,100196.34
2022-07-29T17:32:16.921Z,100202.31
2022-07-29T17:34:45.788Z,100195.88
2022-07-29T17:37:15.746Z,100198.31
2022-07-29T17:39:45.612Z,100195.75
2022-07-29T17:42:15.612Z,100194.53
2022-07-29T17:44:46.330Z,100193.97
2022-07-29T17:47:15.863Z,100199.94
2022-07-29T17:49:47.600Z,100203.34
2022-07-29T17:52:18.696Z,100196.75
2022-07-29T17:54:49.354Z,100198.88
2022-07-29T17:57:18.268Z,100187.25
2022-07-29T17:59:47.321Z,100188.81
2022-07-29T18:02:16.568Z,100181.53
2022-07-29T18:04:45.689Z,100189.16
2022-07-29T18:07:20.596Z,100190.84
2022-07-29T18:09:49.873Z,100182.38
2022-07-29T18:12:18.492Z,100187.47
2022-07-29T18:14:47.368Z,100205.25
2022-07-29T18:17:16.247Z,100199.06
2022-07-29T18:19:44.866Z,100193.44
2022-07-29T18:22:14.434Z,100186.31
2022-07-29T18:24:45.052Z,100192.06
2022-07-29T18:27:13.547Z,100190.66
2022-07-29T18:29:42.800Z,100201.50
2022-07-29T18:32:11.462Z,100199.13
2022-07-29T18:34:41.301Z,100191.53
2022-07-29T18:37:09.837Z,100194.06
2022-07-29T18:39:38.331Z,100192.41
2022-07-29T18:42:09.080Z,100187.06
2022-07-29T18:44:43.522Z,100196.75
2022-07-29T18:47:12.500Z,100198.56
2022-07-29T18:49:42.628Z,100198.97
2022-07-29T18:52:11.177Z,100197.56
2022-07-29T18:54:39.977Z,100203.06
2022-07-29T18:57:53.364Z,100194.75
2022-07-29T18:59:58.525Z,100194.59
2022-07-29T19:02:28.102Z,100207.28
2022-07-29T19:04:57.489Z,100201.22
2022-07-29T19:07:26.985Z,100208.25
2022-07-29T19:09:56.008Z,100211.19
2022-07-29T19:12:26.134Z,100201.63
2022-07-29T19:14:54.921Z,100206.41
2022-07-29T19:17:24.055Z,100210.09
2022-07-29T19:19:54.008Z,100214.00
2022-07-29T19:22:22.996Z,100211.88
2022-07-29T19:24:51.529Z,100219.19
2022-07-29T19:27:20.163Z,100215.97
2022-07-29T19:29:50.200Z,100219.88
2022-07-29T19:32:24.794Z,100219.59
2022-07-29T19:35:11.933Z,100217.59
2022-07-29T19:37:40.429Z,100223.47
2022-07-29T19:40:12.048Z,100220.09
2022-07-29T19:42:40.710Z,100217.66
2022-07-29T19:45:12.137Z,100222.56
2022-07-29T19:47:40.918Z,100214.97
2022-07-29T19:50:10.974Z,100219.59
2022-07-29T19:52:39.557Z,100218.16
2022-07-29T19:55:09.053Z,100212.38
2022-07-29T19:57:40.997Z,100214.34
2022-07-29T20:00:12.945Z,100212.69
2022-07-29T20:02:43.081Z,100216.59
2022-07-29T20:05:14.220Z,100217.84
2022-07-29T20:07:43.102Z,100220.50
2022-07-29T20:10:12.642Z,100220.50
2022-07-29T20:12:42.826Z,100216.84
2022-07-29T20:15:16.575Z,100213.19
2022-07-29T20:17:45.376Z,100204.22
2022-07-29T20:20:14.364Z,100201.56
2022-07-29T20:22:44.425Z,100192.69
2022-07-29T20:25:13.687Z,100191.44
2022-07-29T20:27:43.175Z,100192.28
2022-07-29T20:30:14.688Z,100183.31
2022-07-29T20:32:43.400Z,100179.78
2022-07-29T20:35:12.318Z,100175.28
2022-07-29T20:37:52.296Z,100171.63
2022-07-29T20:40:26.031Z,100178.91
2022-07-29T20:42:55.413Z,100176.97
2022-07-29T20:45:26.093Z,100178.66
2022-07-29T20:47:54.831Z,100181.34
2022-07-29T20:50:24.665Z,100170.66
2022-07-29T20:52:53.695Z,100176.97
2022-07-29T20:55:22.797Z,100168.25
2022-07-29T20:57:51.385Z,100165.00
2022-07-29T21:00:19.935Z,100164.31
2022-07-29T21:02:50.014Z,100158.38
2022-07-29T21:05:18.891Z,100160.47
2022-07-29T21:07:47.326Z,100154.56
2022-07-29T21:10:18.412Z,100159.78
2022-07-29T21:12:47.660Z,100160.47
2022-07-29T21:15:16.467Z,100152.28
2022-07-29T21:17:48.104Z,100153.38
2022-07-29T21:20:20.719Z,100151.09
2022-07-29T21:22:49.215Z,100152.34
2022-07-29T21:25:18.019Z,100148.28
2022-07-29T21:28:04.091Z,100160.19
2022-07-29T21:30:32.682Z,100161.38
2022-07-29T21:33:02.568Z,100166.16
2022-07-29T21:38:21.396Z,100162.56
2022-07-29T21:40:52.388Z,100169.84
2022-07-29T21:43:21.560Z,100172.06
2022-07-29T21:45:51.508Z,100179.34
2022-07-29T21:48:21.237Z,100173.44
2022-07-29T21:50:52.258Z,100173.72
2022-07-29T21:53:22.956Z,100177.31
2022-07-29T21:55:55.505Z,100180.13
2022-07-29T21:58:26.831Z,100179.03
2022-07-29T22:00:55.302Z,100183.75
2022-07-29T22:03:23.994Z,100183.06
2022-07-29T22:05:54.350Z,100174.22
2022-07-29T22:08:23.012Z,100175.19
2022-07-29T22:10:51.549Z,100172.78
2022-07-29T22:13:20.146Z,100173.06
2022-07-29T22:15:49.627Z,100171.34
2022-07-29T22:18:20.424Z,100167.97
2022-07-29T22:20:50.094Z,100164.84
2022-07-29T22:23:20.541Z,100164.97
2022-07-29T22:25:49.582Z,100164.13
2022-07-29T22:28:18.270Z,100160.88
2022-07-29T22:30:47.026Z,100161.00
2022-07-29T22:33:17.529Z,100161.16
2022-07-29T22:35:49.225Z,100153.28
2022-07-29T22:38:18.059Z,100158.47
2022-07-29T22:40:50.813Z,100167.59
2022-07-29T22:43:19.299Z,100167.81
2022-07-29T22:45:48.789Z,100162.50
2022-07-29T22:48:17.485Z,100156.44
2022-07-29T22:50:46.421Z,100154.75
2022-07-29T22:53:15.014Z,100156.72
2022-07-29T22:55:43.747Z,100148.84
2022-07-29T22:58:13.836Z,100150.91
2022-07-29T23:00:42.451Z,100150.19
2022-07-29T23:03:11.012Z,100149.47
2022-07-29T23:05:39.531Z,100149.72
2022-07-29T23:08:08.043Z,100155.25
2022-07-29T23:10:36.829Z,100157.47
2022-07-29T23:13:05.262Z,100152.66
2022-07-29T23:15:35.398Z,100157.28
2022-07-29T23:18:04.061Z,100148.06
2022-07-29T23:20:33.108Z,100156.94
2022-07-29T23:23:02.156Z,100150.28
2022-07-29T23:25:30.756Z,100140.13
2022-07-29T23:27:59.682Z,100137.25
2022-07-29T23:30:29.089Z,100137.00
2022-07-29T23:32:59.436Z,100128.94
2022-07-29T23:35:28.924Z,100131.72
2022-07-29T23:37:57.589Z,100129.22
2022-07-29T23:40:26.602Z,100127.34
2022-07-29T23:42:55.102Z,100136.53
2022-07-29T23:45:39.911Z,100135.50
2022-07-29T23:48:16.690Z,100136.31
2022-07-29T23:50:45.104Z,100139.09
2022-07-29T23:53:13.751Z,100129.81
2022-07-29T23:55:42.229Z,100126.66
2022-07-29T23:58:10.817Z,100130.66
